Time;durP1;ratioP1;P1;durP2;ratioP2;P2;SDS_P1;SDS_P2;PMS_P1;PMS_P2;Temp;Humidity;BMP_temperature;BMP_pressure;BME280_temperature;BME280_humidity;BME280_pressure;Samples;Min_cycle;Max_cycle;Signal;HPM_P1;HPM_P2
2023/01/08 00:02:20;;;;;;;74.95;41.42;;;;;;;8.12;100.00;101169.25;4985404;28;20040;-75
2023/01/08 00:04:46;;;;;;;81.50;42.40;;;;;;;8.11;100.00;101159.81;4990633;28;20555;-75
2023/01/08 00:07:12;;;;;;;77.93;43.13;;;;;;;8.10;100.00;101158.16;4988734;28;20105;-75
2023/01/08 00:09:38;;;;;;;82.03;43.90;;;;;;;8.11;100.00;101157.22;4989900;28;20044;-76
2023/01/08 00:12:05;;;;;;;75.20;42.22;;;;;;;8.11;100.00;101162.41;4991161;28;20934;-76
2023/01/08 00:14:33;;;;;;;81.13;43.58;;;;;;;8.12;100.00;101164.06;4992777;28;20033;-76
2023/01/08 00:17:01;;;;;;;76.90;42.38;;;;;;;8.12;100.00;101158.03;4987583;28;20033;-76
2023/01/08 00:19:30;;;;;;;80.05;43.30;;;;;;;8.10;100.00;101172.91;4991262;28;20421;-76
2023/01/08 00:21:55;;;;;;;73.50;40.10;;;;;;;8.08;100.00;101173.00;5022050;28;20034;-77
2023/01/08 00:24:21;;;;;;;72.93;40.78;;;;;;;8.08;100.00;101157.44;4994546;28;20036;-76
2023/01/08 00:26:47;;;;;;;71.25;40.70;;;;;;;8.08;100.00;101164.38;4990733;28;20041;-77
2023/01/08 00:29:13;;;;;;;73.00;41.50;;;;;;;8.09;100.00;101153.06;4989700;28;20040;-76
2023/01/08 00:31:38;;;;;;;75.70;43.63;;;;;;;8.07;100.00;101160.13;4991299;28;20044;-76
2023/01/08 00:34:04;;;;;;;78.95;44.47;;;;;;;8.06;100.00;101155.88;4993455;28;20046;-76
2023/01/08 00:36:31;;;;;;;74.70;42.25;;;;;;;8.05;100.00;101152.47;4990919;28;20422;-76
2023/01/08 00:38:59;;;;;;;73.78;39.65;;;;;;;8.05;100.00;101162.84;4992587;28;20026;-76
2023/01/08 00:41:24;;;;;;;70.70;39.55;;;;;;;8.05;100.00;101162.84;5025077;28;20471;-76
2023/01/08 00:43:50;;;;;;;73.28;39.15;;;;;;;8.05;100.00;101160.25;4994121;28;20034;-76
2023/01/08 00:46:16;;;;;;;75.22;41.13;;;;;;;8.04;100.00;101156.00;4993819;28;21064;-76
2023/01/08 00:48:42;;;;;;;74.60;40.72;;;;;;;8.02;100.00;101157.06;4992543;28;20030;-76
2023/01/08 00:51:09;;;;;;;70.97;39.90;;;;;;;8.02;100.00;101154.47;4992942;28;20042;-76
2023/01/08 00:53:36;;;;;;;76.28;42.63;;;;;;;8.01;100.00;101150.22;4993530;28;20465;-76
2023/01/08 00:56:09;;;;;;;84.88;44.20;;;;;;;7.98;100.00;101149.50;4993145;28;21869;-76
2023/01/08 00:58:36;;;;;;;79.65;44.60;;;;;;;7.99;100.00;101150.34;5007028;28;20024;-76
2023/01/08 01:01:08;;;;;;;79.47;41.92;;;;;;;7.97;100.00;101158.25;4994420;28;20025;-77
2023/01/08 01:03:34;;;;;;;81.60;43.53;;;;;;;7.95;100.00;101161.88;4995375;28;20030;-77
2023/01/08 01:06:02;;;;;;;79.97;42.78;;;;;;;7.93;100.00;101149.00;4994449;28;20038;-76
2023/01/08 01:08:28;;;;;;;84.88;43.63;;;;;;;7.91;100.00;101150.91;4990900;28;20047;-76
2023/01/08 01:10:55;;;;;;;81.88;44.30;;;;;;;7.87;100.00;101156.41;4994288;28;20026;-77
2023/01/08 01:13:22;;;;;;;79.35;43.33;;;;;;;7.85;100.00;101155.69;4994089;28;20029;-76
2023/01/08 01:15:59;;;;;;;82.35;44.20;;;;;;;7.84;100.00;101160.06;4994378;28;20470;-76
2023/01/08 01:18:26;;;;;;;75.88;41.95;;;;;;;7.85;100.00;101159.13;4990664;28;20038;-76
2023/01/08 01:20:52;;;;;;;68.45;38.95;;;;;;;7.87;100.00;101164.19;4990572;28;20658;-76
2023/01/08 01:23:18;;;;;;;81.60;43.85;;;;;;;7.89;100.00;101162.31;4994880;28;20044;-76
2023/01/08 01:25:44;;;;;;;78.03;41.80;;;;;;;7.88;100.00;101163.25;4993267;28;20481;-76
2023/01/08 01:28:12;;;;;;;81.05;43.00;;;;;;;7.85;100.00;101160.88;4993785;28;20035;-76
2023/01/08 01:30:38;;;;;;;80.25;40.92;;;;;;;7.84;100.00;101160.06;4992558;28;20052;-76
2023/01/08 01:33:04;;;;;;;76.90;41.65;;;;;;;7.82;100.00;101150.72;4995163;28;20045;-77
2023/01/08 01:35:30;;;;;;;72.40;40.88;;;;;;;7.76;100.00;101146.78;4993494;28;20030;-77
2023/01/08 01:37:56;;;;;;;74.90;43.50;;;;;;;7.76;100.00;101151.16;4994743;28;20033;-76
2023/01/08 01:40:22;;;;;;;77.45;43.88;;;;;;;7.77;100.00;101148.44;4992945;28;20030;-77
2023/01/08 01:42:49;;;;;;;76.97;40.88;;;;;;;7.77;100.00;101150.22;4993889;28;20025;-76
2023/01/08 01:45:30;;;;;;;80.75;43.08;;;;;;;7.76;100.00;101146.78;4992829;28;20133;-76
2023/01/08 01:48:09;;;;;;;76.22;40.88;;;;;;;7.76;100.00;101145.97;4993705;28;20761;-76
2023/01/08 01:50:45;;;;;;;79.07;40.20;;;;;;;7.76;100.00;101141.59;4976539;28;20813;-76
2023/01/08 01:53:17;;;;;;;71.45;40.28;;;;;;;7.76;100.00;101139.00;4991072;28;20124;-77
2023/01/08 01:55:43;;;;;;;77.95;40.78;;;;;;;7.78;100.00;101142.31;4991009;28;20375;-76
2023/01/08 01:58:14;;;;;;;76.18;40.90;;;;;;;7.77;100.00;101137.25;4993740;28;20496;-76
2023/01/08 02:00:40;;;;;;;69.97;38.20;;;;;;;7.77;100.00;101137.25;4990983;28;20057;-76
2023/01/08 02:03:08;;;;;;;80.38;40.22;;;;;;;7.79;100.00;101135.38;4991771;28;20537;-76
2023/01/08 02:05:51;;;;;;;76.43;41.22;;;;;;;7.76;100.00;101135.59;5007383;28;20045;-76
2023/01/08 02:08:48;;;;;;;81.18;41.55;;;;;;;7.78;100.00;101133.72;4990841;28;20100;-77
2023/01/08 02:11:44;;;;;;;80.93;43.72;;;;;;;7.76;100.00;101131.22;4970637;28;20042;-76
2023/01/08 02:14:32;;;;;;;78.55;42.40;;;;;;;7.76;100.00;101131.22;4966817;28;20501;-76
2023/01/08 02:17:08;;;;;;;71.18;38.05;;;;;;;7.76;100.00;101125.22;4945735;28;20066;-76
2023/01/08 02:19:57;;;;;;;83.00;43.00;;;;;;;7.71;100.00;101122.13;4968995;28;20040;-77
2023/01/08 02:22:42;;;;;;;80.68;40.92;;;;;;;7.69;100.00;101121.41;4953314;28;20045;-76
2023/01/08 02:25:45;;;;;;;77.93;42.50;;;;;;;7.66;100.00;101120.69;4969451;28;20092;-77
2023/01/08 02:28:14;;;;;;;82.47;44.03;;;;;;;7.67;100.00;101116.31;4967246;28;20479;-76
2023/01/08 02:30:41;;;;;;;80.97;43.55;;;;;;;7.70;100.00;101110.09;4954894;28;20104;-76
2023/01/08 02:33:06;;;;;;;84.90;44.10;;;;;;;7.72;100.00;101113.41;4953861;28;20050;-76
2023/01/08 02:35:54;;;;;;;82.85;44.35;;;;;;;7.74;100.00;101121.91;4970990;28;20516;-77
2023/01/08 02:38:22;;;;;;;80.53;43.28;;;;;;;7.75;100.00;101118.38;4969354;28;20035;-76
2023/01/08 02:40:47;;;;;;;73.72;41.38;;;;;;;7.74;100.00;101121.91;4954929;28;21156;-76
2023/01/08 02:43:19;;;;;;;82.40;42.95;;;;;;;7.74;100.00;101117.53;4968040;28;20038;-77
2023/01/08 02:45:54;;;;;;;81.60;43.53;;;;;;;7.71;100.00;101112.56;4969162;28;20060;-76
2023/01/08 02:48:48;;;;;;;83.07;44.65;;;;;;;7.71;100.00;101099.59;4965828;28;20038;-76
2023/01/08 02:51:48;;;;;;;82.15;43.35;;;;;;;7.69;100.00;101105.84;4993418;28;20037;-76
2023/01/08 02:54:21;;;;;;;82.13;44.08;;;;;;;7.71;100.00;101107.38;5017604;28;20144;-77
2023/01/08 02:57:05;;;;;;;81.93;44.83;;;;;;;7.72;100.00;101092.66;4990288;28;20092;-76
2023/01/08 02:59:34;;;;;;;84.78;45.20;;;;;;;7.68;100.00;101083.44;4991573;28;20056;-77
2023/01/08 03:02:02;;;;;;;85.35;45.15;;;;;;;7.66;100.00;101086.97;4977204;28;20057;-77
2023/01/08 03:04:36;;;;;;;77.70;44.80;;;;;;;7.70;100.00;101084.16;5022406;28;20136;-76
2023/01/08 03:07:02;;;;;;;87.03;45.10;;;;;;;7.71;100.00;101081.44;4991899;28;20038;-75
2023/01/08 03:09:28;;;;;;;78.97;42.55;;;;;;;7.73;100.00;101082.16;4991564;28;20477;-76
2023/01/08 03:12:22;;;;;;;84.25;45.20;;;;;;;7.72;100.00;101071.91;4992846;28;20048;-76
2023/01/08 03:15:00;;;;;;;76.75;41.42;;;;;;;7.67;100.00;101061.84;5023024;28;20069;-76
2023/01/08 03:17:31;;;;;;;80.10;41.50;;;;;;;7.68;100.00;101066.09;4995285;28;20080;-76
2023/01/08 03:20:08;;;;;;;62.75;36.40;;;;;;;7.70;100.00;101068.59;4998756;28;20378;-76
2023/01/08 03:22:38;;;;;;;84.45;41.05;;;;;;;7.69;100.00;101065.16;5007158;28;20033;-76
2023/01/08 03:25:10;;;;;;;77.65;42.08;;;;;;;7.68;100.00;101055.72;5010237;28;20397;-76
2023/01/08 03:27:42;;;;;;;78.10;41.45;;;;;;;7.67;100.00;101059.25;4995506;28;20405;-76
2023/01/08 03:30:10;;;;;;;80.88;41.30;;;;;;;7.67;100.00;101059.25;4995566;28;20049;-75
2023/01/08 03:32:42;;;;;;;76.35;41.72;;;;;;;7.60;100.00;101066.66;4992869;28;20548;-76
2023/01/08 03:35:11;;;;;;;72.15;41.00;;;;;;;7.57;100.00;101066.88;4995880;28;20030;-76
2023/01/08 03:37:43;;;;;;;78.18;40.80;;;;;;;7.59;100.00;101067.59;4978155;28;20044;-76
2023/01/08 03:40:15;;;;;;;74.45;40.70;;;;;;;7.58;100.00;101060.75;4993923;28;20041;-76
2023/01/08 03:42:41;;;;;;;69.72;41.45;;;;;;;7.59;100.00;101056.41;4994891;28;20048;-76
2023/01/08 03:45:09;;;;;;;67.95;38.50;;;;;;;7.59;100.00;101057.22;4994433;28;20117;-76
2023/01/08 03:47:37;;;;;;;75.47;40.28;;;;;;;7.61;100.00;101039.78;5010906;28;20038;-76
2023/01/08 03:50:08;;;;;;;76.07;38.40;;;;;;;7.61;100.00;101044.97;5026844;28;20176;-75
2023/01/08 03:52:34;;;;;;;69.07;38.63;;;;;;;7.62;100.00;101036.25;5024885;28;20076;-76
2023/01/08 03:55:05;;;;;;;70.97;39.10;;;;;;;7.57;100.00;101030.56;4995187;28;20034;-76
2023/01/08 03:57:33;;;;;;;75.05;41.08;;;;;;;7.50;100.00;101031.16;4994552;28;20053;-76
2023/01/08 03:59:59;;;;;;;75.25;41.08;;;;;;;7.45;100.00;101034.06;5028198;28;21134;-76
2023/01/08 04:02:25;;;;;;;76.15;41.10;;;;;;;7.48;100.00;101033.03;4993964;28;20038;-76
2023/01/08 04:04:52;;;;;;;76.85;40.20;;;;;;;7.52;100.00;101034.47;4993942;28;20029;-76
2023/01/08 04:07:18;;;;;;;77.40;39.75;;;;;;;7.55;100.00;101035.06;4991363;28;20026;-76
2023/01/08 04:09:45;;;;;;;75.90;39.88;;;;;;;7.58;100.00;101034.81;4996860;28;20128;-75
2023/01/08 04:12:11;;;;;;;73.40;40.38;;;;;;;7.60;100.00;101032.13;4995743;28;20049;-76
2023/01/08 04:14:37;;;;;;;70.10;37.47;;;;;;;7.59;100.00;101036.47;4994035;28;20181;-76
2023/01/08 04:17:03;;;;;;;70.28;37.83;;;;;;;7.59;100.00;101033.06;4995060;28;20032;-76
2023/01/08 04:19:29;;;;;;;64.47;35.95;;;;;;;7.58;100.00;101032.22;4993377;28;20033;-76
2023/01/08 04:21:55;;;;;;;69.80;38.80;;;;;;;7.57;100.00;101033.16;4994355;28;20041;-76
2023/01/08 04:24:21;;;;;;;68.30;36.45;;;;;;;7.57;100.00;101037.53;4992290;28;20033;-76
2023/01/08 04:26:49;;;;;;;69.35;36.60;;;;;;;7.57;100.00;101033.16;4995385;28;20140;-75
2023/01/08 04:29:15;;;;;;;68.82;37.22;;;;;;;7.57;100.00;101037.53;4994049;28;20060;-76
2023/01/08 04:31:41;;;;;;;72.50;40.83;;;;;;;7.59;100.00;101035.66;4996130;28;20033;-75
2023/01/08 04:34:08;;;;;;;67.18;37.97;;;;;;;7.59;100.00;101031.28;4994701;28;20022;-76
2023/01/08 04:36:34;;;;;;;84.05;41.47;;;;;;;7.58;100.00;101034.81;5024908;28;20034;-76
2023/01/08 04:39:00;;;;;;;76.43;40.72;;;;;;;7.59;100.00;101036.47;4994601;28;20528;-75
2023/01/08 04:41:26;;;;;;;74.97;40.72;;;;;;;7.57;100.00;101032.34;4994191;28;20042;-76
2023/01/08 04:43:54;;;;;;;80.43;40.22;;;;;;;7.55;100.00;101036.84;4994378;28;20128;-75
2023/01/08 04:46:21;;;;;;;76.38;40.53;;;;;;;7.57;100.00;101037.53;4995773;28;20524;-76
2023/01/08 04:48:46;;;;;;;82.55;41.58;;;;;;;7.53;100.00;101029.16;4993644;28;20121;-76
2023/01/08 04:51:12;;;;;;;80.07;41.22;;;;;;;7.49;100.00;101025.16;4993372;28;20041;-75
2023/01/08 04:53:40;;;;;;;75.22;40.58;;;;;;;7.46;100.00;101025.34;4993258;28;20044;-76
2023/01/08 04:56:08;;;;;;;80.15;42.95;;;;;;;7.45;100.00;101034.06;5024227;28;20033;-76
2023/01/08 04:58:37;;;;;;;80.75;43.08;;;;;;;7.44;100.00;101037.59;5009519;28;20045;-75
2023/01/08 05:01:33;;;;;;;87.15;41.50;;;;;;;7.42;100.00;101028.28;4993638;28;20045;-76
2023/01/08 05:04:02;;;;;;;80.68;42.65;;;;;;;7.39;100.00;101029.34;4986786;28;20450;-76
2023/01/08 05:06:30;;;;;;;79.80;40.75;;;;;;;7.39;100.00;101029.34;4995247;28;20176;-75
2023/01/08 05:08:56;;;;;;;80.88;41.40;;;;;;;7.44;100.00;101026.41;4992238;28;20069;-76
2023/01/08 05:11:23;;;;;;;76.35;38.90;;;;;;;7.48;100.00;101033.84;5005813;28;20034;-75
2023/01/08 05:13:50;;;;;;;74.95;39.65;;;;;;;7.51;100.00;101028.44;4996300;28;20034;-76
2023/01/08 05:16:18;;;;;;;74.65;41.28;;;;;;;7.54;100.00;101025.63;5027632;28;20044;-76
2023/01/08 05:18:44;;;;;;;82.05;41.40;;;;;;;7.54;100.00;101017.84;4990984;28;20510;-75
2023/01/08 05:21:10;;;;;;;87.68;44.95;;;;;;;7.50;100.00;101020.78;4993325;28;20112;-76
2023/01/08 05:23:36;;;;;;;86.40;43.17;;;;;;;7.49;100.00;101016.53;5024388;28;20103;-76
2023/01/08 05:26:04;;;;;;;76.35;40.78;;;;;;;7.48;100.00;101022.66;4995981;28;20085;-75
2023/01/08 05:28:34;;;;;;;75.68;39.72;;;;;;;7.51;100.00;101023.28;4991371;28;20045;-75
2023/01/08 05:31:02;;;;;;;73.75;39.97;;;;;;;7.53;100.00;101017.97;5007360;28;20832;-75
2023/01/08 05:33:28;;;;;;;77.00;39.03;;;;;;;7.54;100.00;101007.50;4993474;28;20999;-75
2023/01/08 05:35:53;;;;;;;67.70;37.67;;;;;;;7.54;100.00;101006.66;4993228;28;20064;-76
2023/01/08 05:38:19;;;;;;;79.03;40.70;;;;;;;7.53;100.00;101005.84;4991922;28;20044;-75
2023/01/08 05:40:46;;;;;;;73.93;38.65;;;;;;;7.54;100.00;101004.06;5007788;28;20469;-75
2023/01/08 05:43:12;;;;;;;76.03;41.13;;;;;;;7.55;100.00;101003.97;5021349;28;20034;-75
2023/01/08 05:45:38;;;;;;;80.28;41.83;;;;;;;7.53;100.00;101000.66;5024540;28;20180;-75
2023/01/08 05:48:05;;;;;;;76.88;41.30;;;;;;;7.52;100.00;101001.59;5007258;28;20044;-75
2023/01/08 05:50:31;;;;;;;69.28;38.28;;;;;;;7.52;100.00;101006.78;4976117;28;20036;-74
2023/01/08 05:52:56;;;;;;;72.25;39.70;;;;;;;7.54;100.00;101001.47;4992105;28;20034;-74
2023/01/08 05:55:22;;;;;;;69.57;39.13;;;;;;;7.55;100.00;101000.53;4992437;28;20042;-74
2023/01/08 05:57:49;;;;;;;72.90;39.47;;;;;;;7.52;100.00;100993.81;4992200;28;20030;-74
2023/01/08 06:00:16;;;;;;;78.85;41.25;;;;;;;7.50;100.00;100998.28;4993138;28;20046;-74
2023/01/08 06:02:47;;;;;;;78.78;42.72;;;;;;;7.50;100.00;100993.09;4989752;28;20100;-75
2023/01/08 06:05:13;;;;;;;79.93;41.75;;;;;;;7.51;100.00;100993.91;4992966;28;20749;-74
2023/01/08 06:07:39;;;;;;;77.90;41.75;;;;;;;7.54;100.00;101002.31;4993886;28;20160;-75
2023/01/08 06:10:07;;;;;;;76.95;41.75;;;;;;;7.47;100.00;101000.25;4990494;28;20254;-75
2023/01/08 06:12:33;;;;;;;79.47;42.17;;;;;;;7.41;100.00;100985.97;4992799;28;20033;-75
2023/01/08 06:15:00;;;;;;;77.10;40.95;;;;;;;7.38;100.00;100993.97;4996028;28;20124;-75
2023/01/08 06:17:26;;;;;;;87.10;43.47;;;;;;;7.36;100.00;100997.63;4991273;28;20028;-74
2023/01/08 06:19:51;;;;;;;77.22;41.03;;;;;;;7.41;100.00;100998.94;4992967;28;20026;-75
2023/01/08 06:22:17;;;;;;;72.60;40.25;;;;;;;7.46;100.00;100998.59;4994485;28;20371;-74
2023/01/08 06:24:43;;;;;;;75.07;41.20;;;;;;;7.48;100.00;100983.75;4993797;28;20149;-75
2023/01/08 06:27:09;;;;;;;77.85;42.10;;;;;;;7.49;100.00;100998.38;4992032;28;20033;-74
2023/01/08 06:29:36;;;;;;;79.50;40.25;;;;;;;7.51;100.00;100996.50;5021580;28;20038;-74
2023/01/08 06:32:02;;;;;;;71.85;38.95;;;;;;;7.50;100.00;101006.06;4995588;28;20030;-74
2023/01/08 06:34:28;;;;;;;83.90;41.83;;;;;;;7.51;100.00;100996.50;4992094;28;20052;-75
2023/01/08 06:36:55;;;;;;;80.00;40.92;;;;;;;7.49;100.00;100996.63;4993672;28;20048;-75
2023/01/08 06:39:20;;;;;;;78.18;42.28;;;;;;;7.49;100.00;100994.03;5001766;28;20116;-75
2023/01/08 06:41:46;;;;;;;75.35;41.70;;;;;;;7.50;100.00;100987.06;4995020;28;20037;-75
2023/01/08 06:44:12;;;;;;;84.60;42.35;;;;;;;7.51;100.00;100992.16;5011745;28;20390;-74
2023/01/08 06:46:39;;;;;;;84.10;43.33;;;;;;;7.47;100.00;100984.72;5017906;28;20049;-74
2023/01/08 06:49:05;;;;;;;77.93;41.97;;;;;;;7.42;100.00;100976.44;5022700;28;20033;-74
2023/01/08 06:51:32;;;;;;;85.90;44.00;;;;;;;7.27;100.00;100978.38;5017513;28;20457;-75
2023/01/08 06:53:58;;;;;;;83.38;45.08;;;;;;;7.17;100.00;100978.19;5014664;28;20041;-75
2023/01/08 06:56:23;;;;;;;79.60;41.80;;;;;;;7.16;100.00;100973.94;5019398;28;20119;-75
2023/01/08 06:58:49;;;;;;;81.82;43.47;;;;;;;7.17;100.00;100985.13;5014593;28;20042;-74
2023/01/08 07:01:15;;;;;;;78.82;41.30;;;;;;;7.15;100.00;100977.47;5019782;28;20038;-74
2023/01/08 07:03:41;;;;;;;85.28;43.17;;;;;;;7.13;100.00;100981.09;5013267;28;20034;-75
2023/01/08 07:06:13;;;;;;;88.47;45.97;;;;;;;7.18;100.00;100973.84;5016932;28;20033;-74
2023/01/08 07:08:40;;;;;;;85.95;45.50;;;;;;;7.23;100.00;100976.94;5011940;28;20061;-75
2023/01/08 07:11:05;;;;;;;88.55;46.13;;;;;;;7.26;100.00;100974.13;5016333;28;20046;-75
2023/01/08 07:13:31;;;;;;;83.88;45.10;;;;;;;7.30;100.00;100980.72;5011730;28;20119;-75
2023/01/08 07:15:56;;;;;;;85.13;46.10;;;;;;;7.35;100.00;100970.88;5010931;28;20040;-75
2023/01/08 07:18:22;;;;;;;85.68;42.72;;;;;;;7.39;100.00;100977.47;5014023;28;20056;-75
2023/01/08 07:20:48;;;;;;;78.30;43.10;;;;;;;7.43;100.00;100976.31;5011595;28;20100;-75
2023/01/08 07:23:13;;;;;;;87.35;44.70;;;;;;;7.46;100.00;100968.31;5007379;28;20034;-75
2023/01/08 07:25:39;;;;;;;82.32;45.22;;;;;;;7.44;100.00;100964.19;5017549;28;20040;-75
2023/01/08 07:28:05;;;;;;;89.85;44.67;;;;;;;7.44;100.00;100977.97;5012761;28;20033;-75
2023/01/08 07:30:30;;;;;;;91.18;45.17;;;;;;;7.51;100.00;100986.13;5016942;28;20431;-75
2023/01/08 07:33:02;;;;;;;83.40;43.05;;;;;;;7.56;100.00;100989.22;5012449;28;20581;-74
2023/01/08 07:35:28;;;;;;;86.10;44.53;;;;;;;7.58;100.00;100993.31;5005277;28;20398;-72
2023/01/08 07:37:53;;;;;;;93.05;45.70;;;;;;;7.59;100.00;100987.19;5014659;28;20036;-74
2023/01/08 07:40:18;;;;;;;86.38;45.30;;;;;;;7.58;100.00;100976.94;5014700;28;20435;-74
2023/01/08 07:42:44;;;;;;;83.40;44.83;;;;;;;7.50;100.00;100964.56;5014093;28;20072;-74
2023/01/08 07:45:10;;;;;;;80.43;45.28;;;;;;;7.46;100.00;100973.50;5013761;28;20029;-73
2023/01/08 07:47:35;;;;;;;86.30;45.22;;;;;;;7.51;100.00;100971.41;5015272;28;20092;-73
2023/01/08 07:50:01;;;;;;;92.65;46.67;;;;;;;7.49;100.00;100975.88;5019209;28;20114;-73
2023/01/08 07:52:26;;;;;;;84.07;46.53;;;;;;;7.45;100.00;100969.25;5011379;28;20133;-74
2023/01/08 07:54:52;;;;;;;83.78;44.78;;;;;;;7.43;100.00;100968.53;5007277;28;20026;-73
2023/01/08 07:57:17;;;;;;;87.05;45.38;;;;;;;7.37;100.00;100962.97;5009790;28;20061;-73
2023/01/08 07:59:43;;;;;;;85.68;46.28;;;;;;;7.34;100.00;100964.03;5012098;28;20041;-76
2023/01/08 08:02:10;;;;;;;90.70;48.63;;;;;;;7.37;100.00;100974.16;5019087;28;20175;-75
2023/01/08 08:04:36;;;;;;;93.30;47.58;;;;;;;7.43;100.00;100973.72;5009505;28;20116;-75
2023/01/08 08:07:01;;;;;;;89.75;47.75;;;;;;;7.45;100.00;100974.44;5009502;28;20514;-75
2023/01/08 08:09:27;;;;;;;93.95;47.28;;;;;;;7.51;100.00;100968.81;5010096;28;20100;-75
2023/01/08 08:11:52;;;;;;;91.97;48.22;;;;;;;7.58;100.00;100972.59;5008058;28;20068;-71
2023/01/08 08:14:18;;;;;;;86.40;45.55;;;;;;;7.58;100.00;100962.22;5044515;28;20482;-75
2023/01/08 08:16:43;;;;;;;87.00;43.40;;;;;;;7.57;100.00;100964.91;5018237;28;20044;-77
2023/01/08 08:19:11;;;;;;;85.50;44.00;;;;;;;7.55;100.00;100966.81;5021663;28;20177;-77
2023/01/08 08:21:37;;;;;;;84.30;42.83;;;;;;;7.57;100.00;100963.16;5014698;28;20021;-75
2023/01/08 08:24:02;;;;;;;82.35;41.03;;;;;;;7.52;100.00;100951.50;5009153;28;20033;-75
2023/01/08 08:26:30;;;;;;;77.93;39.95;;;;;;;7.41;100.00;100960.06;5013814;28;20037;-74
2023/01/08 08:28:55;;;;;;;75.22;42.72;;;;;;;7.40;100.00;100950.63;5017723;28;20026;-75
2023/01/08 08:31:21;;;;;;;80.72;40.70;;;;;;;7.43;100.00;100946.97;5009556;28;20136;-75
2023/01/08 08:33:46;;;;;;;79.88;40.83;;;;;;;7.47;100.00;100946.63;5007806;28;20026;-75
2023/01/08 08:36:12;;;;;;;84.68;43.05;;;;;;;7.50;100.00;100949.00;5007680;28;20034;-75
2023/01/08 08:38:38;;;;;;;82.57;43.38;;;;;;;7.52;100.00;100938.53;5008868;28;20029;-75
2023/01/08 08:41:04;;;;;;;86.57;39.92;;;;;;;7.51;100.00;100940.28;5010850;28;20041;-75
2023/01/08 08:43:30;;;;;;;81.35;38.33;;;;;;;7.52;100.00;100936.75;5009516;28;20049;-73
2023/01/08 08:45:55;;;;;;;73.85;38.08;;;;;;;7.51;100.00;100939.47;5016947;28;20139;-75
2023/01/08 08:48:21;;;;;;;65.35;33.10;;;;;;;7.48;100.00;100929.31;5008853;28;20065;-75
2023/01/08 08:50:47;;;;;;;69.72;35.38;;;;;;;7.50;100.00;100930.88;5014532;28;20018;-75
2023/01/08 08:53:12;;;;;;;75.20;39.38;;;;;;;7.49;100.00;100934.41;5008913;28;20033;-75
2023/01/08 08:55:38;;;;;;;76.82;39.83;;;;;;;7.50;100.00;100927.44;5007835;28;20033;-75
2023/01/08 08:58:09;;;;;;;77.15;38.75;;;;;;;7.50;100.00;100927.44;5010722;28;20029;-75
2023/01/08 09:00:35;;;;;;;71.95;35.63;;;;;;;7.49;100.00;100918.84;5013238;28;20064;-75
2023/01/08 09:03:00;;;;;;;69.53;36.47;;;;;;;7.50;100.00;100917.06;5019752;28;20030;-73
2023/01/08 09:05:26;;;;;;;66.75;35.95;;;;;;;7.53;100.00;100912.47;5020431;28;20506;-75
2023/01/08 09:07:53;;;;;;;72.97;37.20;;;;;;;7.57;100.00;100916.47;5015232;28;20046;-74
2023/01/08 09:10:18;;;;;;;73.97;36.67;;;;;;;7.60;100.00;100913.66;5014216;28;20399;-75
2023/01/08 09:12:44;;;;;;;72.80;34.13;;;;;;;7.62;100.00;100916.97;5013606;28;20040;-74
2023/01/08 09:15:10;;;;;;;66.38;33.70;;;;;;;7.62;100.00;100911.78;5011658;28;20060;-75
2023/01/08 09:17:36;;;;;;;69.97;36.08;;;;;;;7.70;100.00;100912.97;5005512;28;20132;-75
2023/01/08 09:20:03;;;;;;;65.70;32.70;;;;;;;7.74;100.00;100904.03;5011235;28;20045;-75
2023/01/08 09:22:29;;;;;;;64.00;32.45;;;;;;;7.77;100.00;100896.00;5006870;28;20551;-75
2023/01/08 09:24:55;;;;;;;65.93;33.28;;;;;;;7.81;100.00;100906.03;5003822;28;20116;-73
2023/01/08 09:27:20;;;;;;;67.63;33.58;;;;;;;7.90;100.00;100909.72;5004163;28;20038;-72
2023/01/08 09:29:45;;;;;;;62.65;32.55;;;;;;;7.96;100.00;100907.47;5010429;28;20028;-73
2023/01/08 09:32:12;;;;;;;69.13;34.00;;;;;;;8.01;100.00;100914.91;5008114;28;20030;-72
2023/01/08 09:34:37;;;;;;;69.15;34.92;;;;;;;8.07;100.00;100916.19;5009835;28;20176;-72
2023/01/08 09:37:04;;;;;;;64.75;31.65;;;;;;;7.98;100.00;100928.13;5009816;28;20434;-72
2023/01/08 09:39:29;;;;;;;63.10;31.63;;;;;;;7.95;100.00;100918.81;5002985;28;20037;-72
2023/01/08 09:41:57;;;;;;;58.85;32.00;;;;;;;7.96;100.00;100917.03;5009770;28;20022;-71
2023/01/08 09:44:27;;;;;;;68.43;35.47;;;;;;;8.04;100.00;100896.50;5007844;28;20033;-73
2023/01/08 09:46:54;;;;;;;64.78;34.70;;;;;;;8.11;100.00;100902.88;5007699;28;20434;-73
2023/01/08 09:49:27;;;;;;;72.22;34.63;;;;;;;8.15;100.00;100891.31;5006006;28;20584;-73
2023/01/08 09:51:53;;;;;;;66.88;36.03;;;;;;;8.15;100.00;100883.50;5008198;28;20064;-73
2023/01/08 09:54:25;;;;;;;66.07;34.22;;;;;;;8.16;100.00;100882.56;5008570;28;20097;-73
2023/01/08 09:56:51;;;;;;;71.07;36.75;;;;;;;8.17;100.00;100879.03;5011943;28;20460;-73
2023/01/08 09:59:17;;;;;;;69.13;35.70;;;;;;;8.22;100.00;100876.91;5007075;28;20057;-73
2023/01/08 10:01:44;;;;;;;70.00;35.67;;;;;;;8.22;100.00;100878.69;5010979;28;20026;-73
2023/01/08 10:04:18;;;;;;;69.80;36.67;;;;;;;8.16;100.00;100879.97;5008374;28;20045;-73
2023/01/08 10:07:14;;;;;;;69.32;35.97;;;;;;;8.12;100.00;100885.53;5008308;28;20025;-73
2023/01/08 10:09:40;;;;;;;63.72;32.22;;;;;;;8.12;100.00;100881.16;5008047;28;20129;-73
2023/01/08 10:12:06;;;;;;;68.07;34.38;;;;;;;8.15;100.00;100878.31;5008575;28;20439;-73
2023/01/08 10:14:36;;;;;;;66.93;33.13;;;;;;;8.18;100.00;100877.25;5012298;28;20033;-73
2023/01/08 10:17:22;;;;;;;64.40;34.30;;;;;;;8.18;100.00;100867.72;5022040;28;20068;-73
2023/01/08 10:19:48;;;;;;;67.78;35.80;;;;;;;8.20;100.00;100868.41;5014732;28;20042;-73
2023/01/08 10:22:19;;;;;;;67.20;36.05;;;;;;;8.23;100.00;100865.59;5023545;28;20033;-73
2023/01/08 10:24:44;;;;;;;66.90;34.85;;;;;;;8.26;100.00;100861.91;5022249;28;20029;-73
2023/01/08 10:27:16;;;;;;;67.32;34.70;;;;;;;8.26;100.00;100867.94;5021134;28;20044;-73
2023/01/08 10:29:41;;;;;;;72.38;35.50;;;;;;;8.25;100.00;100866.28;5014461;28;20629;-73
2023/01/08 10:32:15;;;;;;;63.13;34.83;;;;;;;8.23;100.00;100862.16;5023627;28;20112;-73
2023/01/08 10:34:52;;;;;;;65.65;33.35;;;;;;;8.21;100.00;100846.69;5014447;28;20037;-73
2023/01/08 10:37:38;;;;;;;63.50;34.92;;;;;;;8.23;100.00;100846.59;5015341;28;20480;-73
2023/01/08 10:40:18;;;;;;;70.68;36.70;;;;;;;8.22;100.00;100847.53;5017463;28;20041;-73
2023/01/08 10:42:45;;;;;;;73.57;37.72;;;;;;;8.22;100.00;100837.97;5021478;28;20481;-73
2023/01/08 10:45:23;;;;;;;69.38;36.42;;;;;;;8.20;100.00;100845.06;5024127;28;20493;-73
2023/01/08 10:47:54;;;;;;;66.13;33.65;;;;;;;8.17;100.00;100840.09;5014412;28;20038;-73
2023/01/08 10:50:27;;;;;;;68.95;35.10;;;;;;;8.15;100.00;100831.59;5017806;28;20041;-72
2023/01/08 10:52:59;;;;;;;66.18;33.90;;;;;;;8.11;100.00;100840.56;5015184;28;20120;-73
2023/01/08 10:55:38;;;;;;;66.38;36.78;;;;;;;8.08;100.00;100829.59;5018812;28;20033;-74
2023/01/08 10:58:09;;;;;;;68.40;35.60;;;;;;;8.14;100.00;100829.97;5019011;28;20037;-74
2023/01/08 11:00:36;;;;;;;68.10;36.58;;;;;;;8.10;100.00;100825.94;5010074;28;20119;-74
2023/01/08 11:03:05;;;;;;;69.30;36.83;;;;;;;8.04;100.00;100828.19;5009246;28;20038;-74
2023/01/08 11:05:37;;;;;;;71.68;37.58;;;;;;;8.07;100.00;100822.75;5010526;28;20559;-73
2023/01/08 11:08:06;;;;;;;65.57;33.72;;;;;;;7.95;100.00;100809.81;5005643;28;20041;-73
2023/01/08 11:10:34;;;;;;;64.75;34.95;;;;;;;7.83;100.00;100804.75;5008993;28;20037;-73
2023/01/08 11:13:21;;;;;;;68.10;34.90;;;;;;;7.80;100.00;100799.81;5009619;28;20502;-74
2023/01/08 11:15:56;;;;;;;;;;;;;;;7.69;100.00;100792.84;5012568;28;20049;-74
2023/01/08 11:18:24;;;;;;;61.75;30.98;;;;;;;7.63;100.00;100783.75;5011200;28;19922;-74